createdAt,value
2024-01-26T00:00:00.490Z,102160
2024-01-26T00:01:00.314Z,102160
2024-01-26T00:02:00.282Z,102160
2024-01-26T00:03:00.278Z,102160
2024-01-26T00:04:00.373Z,102160
2024-01-26T00:05:00.362Z,102160
2024-01-26T00:06:00.628Z,102160
2024-01-26T00:07:00.650Z,102160
2024-01-26T00:08:00.284Z,102160
2024-01-26T00:09:08.334Z,102170
2024-01-26T00:10:00.612Z,102160
2024-01-26T00:11:00.255Z,102160
2024-01-26T00:12:00.342Z,102160
2024-01-26T00:13:00.352Z,102160
2024-01-26T00:14:00.291Z,102160
2024-01-26T00:15:00.360Z,102160
2024-01-26T00:16:00.264Z,102160
2024-01-26T00:17:00.267Z,102160
2024-01-26T00:18:00.387Z,102160
2024-01-26T00:19:00.233Z,102160
2024-01-26T00:20:00.363Z,102160
2024-01-26T00:21:00.240Z,102160
2024-01-26T00:22:00.375Z,102160
2024-01-26T00:23:00.267Z,102160
2024-01-26T00:24:00.257Z,102150
2024-01-26T00:25:00.421Z,102150
2024-01-26T00:26:00.248Z,102150
2024-01-26T00:27:00.238Z,102150
2024-01-26T00:28:00.376Z,102150
2024-01-26T00:29:00.205Z,102150
2024-01-26T00:30:00.361Z,102150
2024-01-26T00:31:00.883Z,102150
2024-01-26T00:32:00.296Z,102150
2024-01-26T00:33:00.304Z,102150
2024-01-26T00:34:00.365Z,102150
2024-01-26T00:35:00.314Z,102150
2024-01-26T00:36:00.273Z,102150
2024-01-26T00:37:00.336Z,102150
2024-01-26T00:38:00.342Z,102150
2024-01-26T00:39:00.181Z,102150
2024-01-26T00:40:00.433Z,102150
2024-01-26T00:41:00.279Z,102150
2024-01-26T00:42:00.375Z,102150
2024-01-26T00:43:00.343Z,102150
2024-01-26T00:44:00.260Z,102150
2024-01-26T00:45:00.321Z,102160
2024-01-26T00:46:00.427Z,102160
2024-01-26T00:47:00.243Z,102160
2024-01-26T00:48:00.433Z,102160
2024-01-26T00:49:00.395Z,102160
2024-01-26T00:50:00.504Z,102160
2024-01-26T00:51:00.252Z,102160
2024-01-26T00:52:00.476Z,102160
2024-01-26T00:53:00.683Z,102160
2024-01-26T00:54:00.499Z,102160
2024-01-26T00:55:00.316Z,102160
2024-01-26T00:56:00.308Z,102160
2024-01-26T00:57:00.400Z,102160
2024-01-26T00:58:00.410Z,102170
2024-01-26T00:59:00.188Z,102170
2024-01-26T01:00:00.341Z,102170
2024-01-26T01:01:00.487Z,102180
2024-01-26T01:02:00.440Z,102180
2024-01-26T01:03:00.334Z,102170
2024-01-26T01:04:00.423Z,102180
2024-01-26T01:05:01.098Z,102180
2024-01-26T01:06:00.434Z,102180
2024-01-26T01:07:00.260Z,102170
2024-01-26T01:08:00.314Z,102180
2024-01-26T01:09:00.242Z,102170
2024-01-26T01:10:00.295Z,102170
2024-01-26T01:11:00.315Z,102170
2024-01-26T01:12:00.836Z,102160
2024-01-26T01:13:00.336Z,102160
2024-01-26T01:14:00.231Z,102160
2024-01-26T01:15:00.360Z,102160
2024-01-26T01:16:00.507Z,102160
2024-01-26T01:17:00.238Z,102160
2024-01-26T01:18:00.465Z,102160
2024-01-26T01:19:00.559Z,102160
2024-01-26T01:20:00.285Z,102160
2024-01-26T01:21:00.365Z,102170
2024-01-26T01:22:00.276Z,102160
2024-01-26T01:23:00.288Z,102160
2024-01-26T01:24:00.295Z,102160
2024-01-26T01:25:00.503Z,102160
2024-01-26T01:26:00.230Z,102160
2024-01-26T01:27:00.337Z,102160
2024-01-26T01:28:00.279Z,102160
2024-01-26T01:29:00.309Z,102160
2024-01-26T01:30:00.522Z,102170
2024-01-26T01:31:00.844Z,102170
2024-01-26T01:32:00.260Z,102180
2024-01-26T01:33:00.489Z,102180
2024-01-26T01:34:00.410Z,102180
2024-01-26T01:35:00.852Z,102190
2024-01-26T01:36:00.302Z,102190
2024-01-26T01:37:00.276Z,102190
2024-01-26T01:38:00.310Z,102190
2024-01-26T01:39:00.276Z,102190
2024-01-26T01:40:00.256Z,102190
2024-01-26T01:41:00.381Z,102180
2024-01-26T01:42:00.413Z,102180
2024-01-26T01:43:00.699Z,102180
2024-01-26T01:44:00.308Z,102180
2024-01-26T01:45:00.469Z,102170
2024-01-26T01:46:00.253Z,102170
2024-01-26T01:47:00.268Z,102170
2024-01-26T01:48:00.371Z,102170
2024-01-26T01:49:00.347Z,102170
2024-01-26T01:50:00.285Z,102170
2024-01-26T01:51:00.845Z,102170
2024-01-26T01:52:01.821Z,102170
2024-01-26T01:53:03.477Z,102170
2024-01-26T01:54:01.205Z,102170
2024-01-26T01:55:03.220Z,102170
2024-01-26T01:56:00.980Z,102170
2024-01-26T01:57:02.213Z,102160
2024-01-26T01:58:00.301Z,102160
2024-01-26T01:59:00.229Z,102160
2024-01-26T02:00:00.367Z,102160
2024-01-26T02:01:00.452Z,102160
2024-01-26T02:02:00.355Z,102160
2024-01-26T02:03:00.427Z,102170
2024-01-26T02:04:00.352Z,102160
2024-01-26T02:05:00.400Z,102170
2024-01-26T02:06:00.613Z,102160
2024-01-26T02:07:00.874Z,102160
2024-01-26T02:08:00.261Z,102160
2024-01-26T02:09:00.360Z,102160
2024-01-26T02:10:00.305Z,102160
2024-01-26T02:11:00.259Z,102160
2024-01-26T02:12:00.322Z,102160
2024-01-26T02:13:00.834Z,102160
2024-01-26T02:14:00.232Z,102160
2024-01-26T02:15:00.363Z,102160
2024-01-26T02:16:00.312Z,102160
2024-01-26T02:17:01.195Z,102170
2024-01-26T02:18:00.421Z,102170
2024-01-26T02:19:00.425Z,102170
2024-01-26T02:20:00.569Z,102170
2024-01-26T02:21:00.309Z,102170
2024-01-26T02:22:00.292Z,102170
2024-01-26T02:23:00.213Z,102170
2024-01-26T02:24:00.349Z,102180
2024-01-26T02:25:00.285Z,102170
2024-01-26T02:26:00.335Z,102170
2024-01-26T02:27:00.355Z,102170
2024-01-26T02:28:00.330Z,102170
2024-01-26T02:29:00.205Z,102170
2024-01-26T02:30:00.477Z,102170
2024-01-26T02:31:00.236Z,102170
2024-01-26T02:32:00.223Z,102170
2024-01-26T02:33:00.344Z,102160
2024-01-26T02:34:00.361Z,102160
2024-01-26T02:35:00.449Z,102160
2024-01-26T02:36:00.327Z,102170
2024-01-26T02:37:00.471Z,102160
2024-01-26T02:38:00.243Z,102170
2024-01-26T02:39:00.543Z,102160
2024-01-26T02:40:00.407Z,102160
2024-01-26T02:41:00.276Z,102160
2024-01-26T02:42:00.348Z,102160
2024-01-26T02:43:00.244Z,102160
2024-01-26T02:44:00.318Z,102160
2024-01-26T02:45:00.340Z,102160
2024-01-26T02:46:00.227Z,102170
2024-01-26T02:47:00.444Z,102170
2024-01-26T02:48:00.447Z,102170
2024-01-26T02:49:00.324Z,102170
2024-01-26T02:50:00.282Z,102170
2024-01-26T02:51:00.354Z,102180
2024-01-26T02:52:00.362Z,102180
2024-01-26T02:53:00.302Z,102190
2024-01-26T02:54:00.456Z,102190
2024-01-26T02:55:00.263Z,102190
2024-01-26T02:56:00.225Z,102190
2024-01-26T02:57:00.318Z,102190
2024-01-26T02:58:00.273Z,102190
2024-01-26T02:59:00.255Z,102190
2024-01-26T03:00:00.383Z,102200
2024-01-26T03:01:00.950Z,102200
2024-01-26T03:02:00.280Z,102200
2024-01-26T03:03:00.643Z,102200
2024-01-26T03:04:00.272Z,102190
2024-01-26T03:05:00.280Z,102190
2024-01-26T03:06:00.364Z,102190
2024-01-26T03:07:00.386Z,102180
2024-01-26T03:08:00.291Z,102180
2024-01-26T03:09:00.228Z,102180
2024-01-26T03:10:00.354Z,102180
2024-01-26T03:11:00.261Z,102180
2024-01-26T03:12:00.319Z,102180
2024-01-26T03:13:00.313Z,102180
2024-01-26T03:14:00.275Z,102180
2024-01-26T03:15:00.729Z,102190
2024-01-26T03:17:00.247Z,102180
2024-01-26T03:18:00.434Z,102180
2024-01-26T03:19:00.584Z,102180
2024-01-26T03:20:00.409Z,102180
2024-01-26T03:21:00.520Z,102190
2024-01-26T03:22:00.319Z,102180
2024-01-26T03:23:00.262Z,102190
2024-01-26T03:24:00.420Z,102190
2024-01-26T03:25:00.294Z,102190
2024-01-26T03:26:00.251Z,102190
2024-01-26T03:27:00.346Z,102190
2024-01-26T03:28:00.263Z,102190
2024-01-26T03:29:00.201Z,102190
2024-01-26T03:30:00.402Z,102190
2024-01-26T03:31:00.274Z,102190
2024-01-26T03:32:00.317Z,102190
2024-01-26T03:33:00.425Z,102190
2024-01-26T03:34:00.592Z,102190
2024-01-26T03:35:00.386Z,102190
2024-01-26T03:36:00.354Z,102190
2024-01-26T03:37:00.282Z,102200
2024-01-26T03:38:00.453Z,102200
2024-01-26T03:39:00.269Z,102200
2024-01-26T03:40:00.249Z,102190
2024-01-26T03:41:00.466Z,102190
2024-01-26T03:42:00.360Z,102190
2024-01-26T03:43:00.264Z,102200
2024-01-26T03:44:00.332Z,102200
2024-01-26T03:45:00.405Z,102200
2024-01-26T03:46:02.007Z,102200
2024-01-26T03:47:00.258Z,102200
2024-01-26T03:48:00.400Z,102200
2024-01-26T03:49:00.319Z,102200
2024-01-26T03:50:00.395Z,102200
2024-01-26T03:51:00.321Z,102210
2024-01-26T03:52:00.272Z,102210
2024-01-26T03:53:00.248Z,102220
2024-01-26T03:54:00.319Z,102210
2024-01-26T03:55:01.348Z,102210
2024-01-26T03:56:00.255Z,102210
2024-01-26T03:57:00.354Z,102210
2024-01-26T03:58:00.286Z,102210
2024-01-26T03:59:00.278Z,102200
2024-01-26T04:00:01.253Z,102200
2024-01-26T04:01:00.287Z,102200
2024-01-26T04:02:00.295Z,102200
2024-01-26T04:03:00.361Z,102200
2024-01-26T04:04:00.291Z,102200
2024-01-26T04:05:00.298Z,102200
2024-01-26T04:06:00.275Z,102210
2024-01-26T04:07:00.322Z,102210
2024-01-26T04:08:00.262Z,102210
2024-01-26T04:09:00.259Z,102210
2024-01-26T04:10:00.266Z,102210
2024-01-26T04:11:00.465Z,102210
2024-01-26T04:12:00.336Z,102210
2024-01-26T04:13:00.244Z,102210
2024-01-26T04:14:00.306Z,102210
2024-01-26T04:15:00.301Z,102210
2024-01-26T04:16:00.222Z,102220
2024-01-26T04:17:00.346Z,102220
2024-01-26T04:18:00.473Z,102220
2024-01-26T04:19:00.493Z,102230
2024-01-26T04:20:00.434Z,102230
2024-01-26T04:21:00.281Z,102230
2024-01-26T04:22:00.295Z,102230
2024-01-26T04:23:00.231Z,102230
2024-01-26T04:24:00.393Z,102230
2024-01-26T04:25:00.297Z,102230
2024-01-26T04:26:00.305Z,102230
2024-01-26T04:27:00.277Z,102220
2024-01-26T04:28:00.346Z,102210
2024-01-26T04:29:00.163Z,102220
2024-01-26T04:30:00.520Z,102210
2024-01-26T04:31:00.347Z,102210
2024-01-26T04:32:00.324Z,102210
2024-01-26T04:33:00.551Z,102210
2024-01-26T04:34:00.566Z,102210
2024-01-26T04:35:00.273Z,102210
2024-01-26T04:36:00.315Z,102220
2024-01-26T04:37:00.256Z,102210
2024-01-26T04:38:00.243Z,102210
2024-01-26T04:39:00.273Z,102210
2024-01-26T04:40:00.284Z,102210
2024-01-26T04:42:00.350Z,102200
2024-01-26T04:43:00.486Z,102210
2024-01-26T04:44:00.229Z,102210
2024-01-26T04:45:00.367Z,102210
2024-01-26T04:46:00.265Z,102210
2024-01-26T04:47:00.295Z,102200
2024-01-26T04:48:00.399Z,102200
2024-01-26T04:49:00.420Z,102210
2024-01-26T04:50:00.378Z,102210
2024-01-26T04:51:00.396Z,102210
2024-01-26T04:52:00.252Z,102220
2024-01-26T04:53:00.284Z,102210
2024-01-26T04:54:00.303Z,102210
2024-01-26T04:55:00.305Z,102210
2024-01-26T04:56:00.234Z,102210
2024-01-26T04:57:00.284Z,102210
2024-01-26T04:58:00.257Z,102210
2024-01-26T04:59:00.178Z,102210
2024-01-26T05:00:00.882Z,102210
2024-01-26T05:01:00.297Z,102210
2024-01-26T05:02:00.293Z,102210
2024-01-26T05:03:00.381Z,102210
2024-01-26T05:04:00.334Z,102210
2024-01-26T05:05:00.256Z,102210
2024-01-26T05:06:00.377Z,102210
2024-01-26T05:07:00.535Z,102220
2024-01-26T05:08:00.235Z,102220
2024-01-26T05:09:00.259Z,102220
2024-01-26T05:10:00.660Z,102220
2024-01-26T05:11:00.425Z,102230
2024-01-26T05:12:01.483Z,102230
2024-01-26T05:13:00.235Z,102230
2024-01-26T05:14:00.271Z,102230
2024-01-26T05:15:01.245Z,102240
2024-01-26T05:16:00.256Z,102240
2024-01-26T05:17:00.265Z,102240
2024-01-26T05:18:00.399Z,102240
2024-01-26T05:19:00.474Z,102240
2024-01-26T05:20:00.474Z,102250
2024-01-26T05:21:00.678Z,102250
2024-01-26T05:22:00.274Z,102250
2024-01-26T05:23:01.211Z,102250
2024-01-26T05:24:00.326Z,102250
2024-01-26T05:25:00.403Z,102250
2024-01-26T05:26:00.275Z,102250
2024-01-26T05:27:00.294Z,102260
2024-01-26T05:28:00.241Z,102260
2024-01-26T05:29:00.194Z,102270
2024-01-26T05:30:00.570Z,102270
2024-01-26T05:31:00.220Z,102270
2024-01-26T05:32:00.310Z,102270
2024-01-26T05:33:00.414Z,102280
2024-01-26T05:34:00.790Z,102280
2024-01-26T05:35:00.370Z,102280
2024-01-26T05:36:00.329Z,102280
2024-01-26T05:37:00.239Z,102280
2024-01-26T05:38:00.344Z,102280
2024-01-26T05:39:00.250Z,102280
2024-01-26T05:40:03.445Z,102280
2024-01-26T05:41:00.397Z,102280
2024-01-26T05:42:00.411Z,102280
2024-01-26T05:43:00.272Z,102280
2024-01-26T05:44:00.284Z,102280
2024-01-26T05:45:01.544Z,102280
2024-01-26T05:46:00.247Z,102280
2024-01-26T05:47:00.228Z,102280
2024-01-26T05:48:00.387Z,102290
2024-01-26T05:49:00.380Z,102290
2024-01-26T05:50:00.535Z,102290
2024-01-26T05:51:00.314Z,102290
2024-01-26T05:52:00.338Z,102290
2024-01-26T05:53:00.285Z,102290
2024-01-26T05:54:00.463Z,102300
2024-01-26T05:55:00.271Z,102300
2024-01-26T05:56:00.395Z,102300
2024-01-26T05:57:00.389Z,102290
2024-01-26T05:58:00.233Z,102290
2024-01-26T05:59:00.176Z,102300
2024-01-26T06:01:00.961Z,102290
2024-01-26T06:02:00.255Z,102290
2024-01-26T06:03:00.350Z,102290
2024-01-26T06:04:00.662Z,102280
2024-01-26T06:05:00.369Z,102290
2024-01-26T06:06:00.473Z,102280
2024-01-26T06:07:00.592Z,102280
2024-01-26T06:08:00.366Z,102280
2024-01-26T06:09:00.223Z,102280
2024-01-26T06:10:00.286Z,102280
2024-01-26T06:11:00.263Z,102280
2024-01-26T06:12:00.351Z,102280
2024-01-26T06:13:00.234Z,102280
2024-01-26T06:14:00.256Z,102280
2024-01-26T06:16:00.267Z,102280
2024-01-26T06:17:00.330Z,102280
2024-01-26T06:18:00.445Z,102270
2024-01-26T06:19:03.552Z,102270
2024-01-26T06:20:00.480Z,102270
2024-01-26T06:21:00.785Z,102270
2024-01-26T06:22:00.363Z,102270
2024-01-26T06:23:01.000Z,102280
2024-01-26T06:24:00.405Z,102280
2024-01-26T06:25:00.232Z,102280
2024-01-26T06:26:00.272Z,102280
2024-01-26T06:27:00.364Z,102290
2024-01-26T06:28:00.377Z,102290
2024-01-26T06:29:00.190Z,102290
2024-01-26T06:30:00.438Z,102290
2024-01-26T06:31:00.235Z,102300
2024-01-26T06:32:00.233Z,102300
2024-01-26T06:33:00.474Z,102300
2024-01-26T06:34:00.481Z,102300
2024-01-26T06:35:00.441Z,102310
2024-01-26T06:36:00.354Z,102310
2024-01-26T06:37:00.245Z,102320
2024-01-26T06:38:00.252Z,102330
2024-01-26T06:39:00.287Z,102340
2024-01-26T06:40:00.349Z,102340
2024-01-26T06:42:00.458Z,102350
2024-01-26T06:43:00.248Z,102350
2024-01-26T06:44:00.250Z,102350
2024-01-26T06:45:00.383Z,102350
2024-01-26T06:46:00.290Z,102350
2024-01-26T06:47:00.279Z,102350
2024-01-26T06:48:00.791Z,102350
2024-01-26T06:49:00.308Z,102340
2024-01-26T06:50:00.429Z,102340
2024-01-26T06:51:00.371Z,102340
2024-01-26T06:52:00.252Z,102340
2024-01-26T06:53:00.281Z,102330
2024-01-26T06:54:00.311Z,102340
2024-01-26T06:55:00.321Z,102330
2024-01-26T06:56:00.485Z,102330
2024-01-26T06:57:00.480Z,102320
2024-01-26T06:58:00.368Z,102330
2024-01-26T06:59:00.337Z,102330
2024-01-26T07:00:00.556Z,102330
2024-01-26T07:01:01.581Z,102340
2024-01-26T07:02:00.294Z,102350
2024-01-26T07:03:00.387Z,102350
2024-01-26T07:04:00.499Z,102350
2024-01-26T07:05:00.314Z,102360
2024-01-26T07:06:00.414Z,102350
2024-01-26T07:07:00.469Z,102350
2024-01-26T07:08:00.256Z,102350
2024-01-26T07:09:00.203Z,102350
2024-01-26T07:10:00.300Z,102350
2024-01-26T07:11:00.282Z,102350
2024-01-26T07:12:00.332Z,102350
2024-01-26T07:13:00.391Z,102350
2024-01-26T07:14:00.397Z,102360
2024-01-26T07:15:00.338Z,102360
2024-01-26T07:16:00.228Z,102360
2024-01-26T07:17:00.240Z,102350
2024-01-26T07:18:00.380Z,102360
2024-01-26T07:19:00.376Z,102360
2024-01-26T07:20:00.340Z,102360
2024-01-26T07:21:05.323Z,102360
2024-01-26T07:22:00.265Z,102370
2024-01-26T07:23:00.246Z,102370
2024-01-26T07:24:00.338Z,102370
2024-01-26T07:25:00.235Z,102370
2024-01-26T07:26:00.756Z,102370
2024-01-26T07:27:00.327Z,102370
2024-01-26T07:28:00.262Z,102370
2024-01-26T07:29:00.597Z,102370
2024-01-26T07:30:02.639Z,102370
2024-01-26T07:31:00.214Z,102370
2024-01-26T07:33:00.456Z,102380
2024-01-26T07:34:00.481Z,102380
2024-01-26T07:35:00.333Z,102380
2024-01-26T07:36:00.362Z,102380
2024-01-26T07:37:00.276Z,102380
2024-01-26T07:38:00.248Z,102380
2024-01-26T07:39:00.236Z,102380
2024-01-26T07:40:00.362Z,102380
2024-01-26T07:41:01.284Z,102380
2024-01-26T07:42:00.449Z,102380
2024-01-26T07:43:00.246Z,102380
2024-01-26T07:44:00.212Z,102390
2024-01-26T07:45:00.358Z,102390
2024-01-26T07:46:00.284Z,102390
2024-01-26T07:47:00.292Z,102390
2024-01-26T07:48:00.343Z,102400
2024-01-26T07:49:00.283Z,102390
2024-01-26T07:50:00.687Z,102390
2024-01-26T07:51:00.343Z,102390
2024-01-26T07:52:00.233Z,102390
2024-01-26T07:53:00.230Z,102390
2024-01-26T07:54:00.326Z,102380
2024-01-26T07:55:00.225Z,102390
2024-01-26T07:56:00.256Z,102390
2024-01-26T07:57:00.292Z,102400
2024-01-26T07:58:00.325Z,102400
2024-01-26T07:59:00.194Z,102400
2024-01-26T08:00:00.417Z,102400
2024-01-26T08:01:01.012Z,102400
2024-01-26T08:02:00.280Z,102400
2024-01-26T08:03:00.307Z,102410
2024-01-26T08:04:00.375Z,102410
2024-01-26T08:05:00.390Z,102410
2024-01-26T08:06:00.589Z,102410
2024-01-26T08:07:00.248Z,102410
2024-01-26T08:08:00.531Z,102410
2024-01-26T08:09:00.220Z,102410
2024-01-26T08:10:00.369Z,102420
2024-01-26T08:11:00.229Z,102420
2024-01-26T08:12:00.257Z,102420
2024-01-26T08:13:00.430Z,102420
2024-01-26T08:14:00.238Z,102420
2024-01-26T08:15:00.328Z,102420
2024-01-26T08:16:00.255Z,102420
2024-01-26T08:17:00.269Z,102420
2024-01-26T08:18:00.375Z,102420
2024-01-26T08:19:00.334Z,102420
2024-01-26T08:20:00.414Z,102420
2024-01-26T08:21:00.468Z,102420
2024-01-26T08:22:00.248Z,102420
2024-01-26T08:23:00.275Z,102420
2024-01-26T08:24:00.368Z,102420
2024-01-26T08:25:00.292Z,102430
2024-01-26T08:26:00.839Z,102420
2024-01-26T08:27:00.338Z,102430
2024-01-26T08:28:00.266Z,102430
2024-01-26T08:29:00.233Z,102430
2024-01-26T08:30:00.423Z,102430
2024-01-26T08:31:00.264Z,102420
2024-01-26T08:32:00.344Z,102420
2024-01-26T08:34:00.583Z,102420
2024-01-26T08:35:00.558Z,102420
2024-01-26T08:36:00.581Z,102420
2024-01-26T08:37:00.488Z,102430
2024-01-26T08:38:00.288Z,102430
2024-01-26T08:39:00.235Z,102430
2024-01-26T08:40:00.323Z,102430
2024-01-26T08:41:00.273Z,102420
2024-01-26T08:42:00.394Z,102420
2024-01-26T08:43:00.249Z,102420
2024-01-26T08:44:00.269Z,102420
2024-01-26T08:45:00.433Z,102420
2024-01-26T08:46:00.344Z,102420
2024-01-26T08:47:00.337Z,102420
2024-01-26T08:48:00.439Z,102430
2024-01-26T08:49:00.350Z,102430
2024-01-26T08:50:00.397Z,102430
2024-01-26T08:51:00.839Z,102430
2024-01-26T08:52:00.270Z,102430
2024-01-26T08:53:00.264Z,102430
2024-01-26T08:54:00.446Z,102440
2024-01-26T08:55:00.301Z,102440
2024-01-26T08:56:02.675Z,102460
2024-01-26T08:57:00.379Z,102460
2024-01-26T08:58:00.313Z,102460
2024-01-26T08:59:01.286Z,102460
2024-01-26T09:00:00.370Z,102450
2024-01-26T09:01:00.417Z,102460
2024-01-26T09:02:00.310Z,102460
2024-01-26T09:03:00.275Z,102470
2024-01-26T09:04:00.643Z,102470
2024-01-26T09:05:02.997Z,102480
2024-01-26T09:06:00.481Z,102480
2024-01-26T09:07:07.869Z,102480
2024-01-26T09:08:00.310Z,102480
2024-01-26T09:09:00.611Z,102480
2024-01-26T09:10:00.535Z,102470
2024-01-26T09:11:00.274Z,102470
2024-01-26T09:12:00.359Z,102480
2024-01-26T09:13:00.300Z,102480
2024-01-26T09:14:00.366Z,102470
2024-01-26T09:15:00.484Z,102470
2024-01-26T09:16:00.262Z,102470
2024-01-26T09:17:00.259Z,102470
2024-01-26T09:18:00.463Z,102470
2024-01-26T09:19:02.243Z,102470
2024-01-26T09:20:00.559Z,102470
2024-01-26T09:21:01.702Z,102470
2024-01-26T09:22:00.240Z,102480
2024-01-26T09:23:00.285Z,102480
2024-01-26T09:24:00.313Z,102470
2024-01-26T09:25:00.308Z,102470
2024-01-26T09:26:00.321Z,102460
2024-01-26T09:27:00.721Z,102460
2024-01-26T09:28:00.342Z,102450
2024-01-26T09:29:00.658Z,102440
2024-01-26T09:30:00.389Z,102450
2024-01-26T09:31:00.258Z,102460
2024-01-26T09:32:00.386Z,102460
2024-01-26T09:33:00.508Z,102470
2024-01-26T09:34:00.445Z,102460
2024-01-26T09:35:01.541Z,102450
2024-01-26T09:36:00.449Z,102450
2024-01-26T09:37:00.252Z,102450
2024-01-26T09:38:00.238Z,102450
2024-01-26T09:39:00.250Z,102450
2024-01-26T09:40:00.415Z,102460
2024-01-26T09:41:02.029Z,102460
2024-01-26T09:43:00.244Z,102470
2024-01-26T09:44:00.347Z,102480
2024-01-26T09:46:00.238Z,102490
2024-01-26T09:47:02.074Z,102490
2024-01-26T09:48:03.957Z,102500
2024-01-26T09:49:01.102Z,102500
2024-01-26T09:51:00.775Z,102490
2024-01-26T09:52:00.698Z,102490
2024-01-26T09:53:00.980Z,102500
2024-01-26T09:54:00.771Z,102490
2024-01-26T09:55:01.172Z,102490
2024-01-26T09:56:00.440Z,102490
2024-01-26T09:57:00.515Z,102490
2024-01-26T09:58:00.333Z,102490
2024-01-26T09:59:00.175Z,102490
2024-01-26T10:00:00.409Z,102490
2024-01-26T10:01:00.670Z,102490
2024-01-26T10:02:00.621Z,102490
2024-01-26T10:04:01.006Z,102500
2024-01-26T10:05:00.259Z,102500
2024-01-26T10:06:00.713Z,102500
2024-01-26T10:07:00.365Z,102500
2024-01-26T10:09:00.233Z,102510
2024-01-26T10:10:00.314Z,102510
2024-01-26T10:11:00.265Z,102510
2024-01-26T10:12:00.416Z,102500
2024-01-26T10:13:00.270Z,102500
2024-01-26T10:14:00.264Z,102490
2024-01-26T10:15:02.025Z,102490
2024-01-26T10:16:04.011Z,102490
2024-01-26T10:40:01.099Z,102500
2024-01-26T10:41:01.069Z,102500
2024-01-26T10:45:01.294Z,102510
2024-01-26T10:48:00.699Z,102500
2024-01-26T10:49:00.722Z,102500
2024-01-26T10:50:00.431Z,102500
2024-01-26T10:51:01.193Z,102490
2024-01-26T10:52:00.858Z,102490
2024-01-26T10:53:01.703Z,102500
2024-01-26T10:54:00.338Z,102500
2024-01-26T10:55:00.454Z,102500
2024-01-26T10:56:00.978Z,102500
2024-01-26T10:57:00.386Z,102500
2024-01-26T10:58:01.337Z,102500
2024-01-26T10:59:00.420Z,102500
2024-01-26T11:00:00.736Z,102500
2024-01-26T11:01:00.435Z,102500
2024-01-26T11:02:00.412Z,102500
2024-01-26T11:03:00.524Z,102490
2024-01-26T11:04:00.402Z,102490
2024-01-26T11:05:01.019Z,102490
2024-01-26T11:06:00.602Z,102490
2024-01-26T11:07:00.666Z,102490
2024-01-26T11:08:02.039Z,102490
2024-01-26T11:09:07.772Z,102490
2024-01-26T11:10:02.757Z,102490
2024-01-26T11:11:00.328Z,102500
2024-01-26T11:12:01.647Z,102500
2024-01-26T11:13:00.779Z,102500
2024-01-26T11:14:00.590Z,102500
2024-01-26T11:15:07.359Z,102490
2024-01-26T11:16:04.022Z,102490
2024-01-26T11:17:08.173Z,102490
2024-01-26T11:18:00.667Z,102490
2024-01-26T11:19:00.773Z,102490
2024-01-26T11:20:00.451Z,102490
2024-01-26T11:21:03.798Z,102480
2024-01-26T11:22:02.334Z,102480
2024-01-26T11:23:01.277Z,102480
2024-01-26T11:24:09.451Z,102480
2024-01-26T11:25:00.243Z,102470
2024-01-26T11:29:09.259Z,102470
2024-01-26T11:30:00.393Z,102470
2024-01-26T11:31:00.299Z,102470
2024-01-26T11:32:01.071Z,102470
2024-01-26T11:33:00.805Z,102470
2024-01-26T11:34:00.451Z,102460
2024-01-26T11:35:00.668Z,102460
2024-01-26T11:36:02.436Z,102460
2024-01-26T11:37:17.462Z,102460
2024-01-26T11:38:00.769Z,102460
2024-01-26T11:39:00.320Z,102460
2024-01-26T11:40:00.545Z,102440
2024-01-26T11:41:01.192Z,102440
2024-01-26T11:42:00.351Z,102450
2024-01-26T11:43:00.276Z,102450
2024-01-26T11:44:04.651Z,102450
2024-01-26T11:45:06.664Z,102450
2024-01-26T11:46:00.300Z,102450
2024-01-26T11:47:02.162Z,102450
2024-01-26T11:48:00.390Z,102450
2024-01-26T11:49:00.497Z,102450
2024-01-26T11:50:00.316Z,102450
2024-01-26T11:51:00.355Z,102450
2024-01-26T11:52:00.269Z,102440
2024-01-26T11:53:00.340Z,102440
2024-01-26T11:54:00.377Z,102440
2024-01-26T11:55:01.020Z,102440
2024-01-26T11:56:00.257Z,102440
2024-01-26T11:57:00.393Z,102440
2024-01-26T11:58:00.373Z,102440
2024-01-26T11:59:00.189Z,102440
2024-01-26T12:00:00.394Z,102440
2024-01-26T12:01:00.872Z,102440
2024-01-26T12:02:00.268Z,102440
2024-01-26T12:05:00.430Z,102430
2024-01-26T12:06:00.407Z,102430
2024-01-26T12:07:01.015Z,102430
2024-01-26T12:08:00.637Z,102430
2024-01-26T12:09:00.337Z,102430
2024-01-26T12:10:00.609Z,102430
2024-01-26T12:11:00.338Z,102430
2024-01-26T12:12:00.481Z,102430
2024-01-26T12:13:00.578Z,102420
2024-01-26T12:14:00.549Z,102420
2024-01-26T12:15:00.336Z,102420
2024-01-26T12:16:00.453Z,102420
2024-01-26T12:17:01.513Z,102420
2024-01-26T12:18:00.458Z,102420
2024-01-26T12:19:00.396Z,102410
2024-01-26T12:20:00.496Z,102410
2024-01-26T12:21:00.720Z,102410
2024-01-26T12:22:00.235Z,102410
2024-01-26T12:23:00.248Z,102400
2024-01-26T12:24:00.318Z,102400
2024-01-26T12:25:00.799Z,102410
2024-01-26T12:26:00.254Z,102410
2024-01-26T12:27:00.849Z,102400
2024-01-26T12:28:00.263Z,102400
2024-01-26T12:29:00.213Z,102400
2024-01-26T12:30:00.531Z,102400
2024-01-26T12:31:00.408Z,102390
2024-01-26T12:32:08.485Z,102390
2024-01-26T12:33:04.722Z,102380
2024-01-26T12:34:00.605Z,102380
2024-01-26T12:35:00.437Z,102370
2024-01-26T12:36:00.295Z,102370
2024-01-26T12:37:00.329Z,102370
2024-01-26T12:38:00.297Z,102370
2024-01-26T12:39:00.465Z,102370
2024-01-26T12:40:00.274Z,102370
2024-01-26T12:41:00.438Z,102370
2024-01-26T12:42:00.410Z,102370
2024-01-26T12:43:00.241Z,102360
2024-01-26T12:44:01.014Z,102360
2024-01-26T12:45:00.347Z,102350
2024-01-26T12:46:00.246Z,102350
2024-01-26T12:47:00.322Z,102360
2024-01-26T12:48:00.370Z,102360
2024-01-26T12:49:00.312Z,102360
2024-01-26T12:50:00.446Z,102360
2024-01-26T12:51:00.302Z,102350
2024-01-26T12:52:00.801Z,102350
2024-01-26T12:53:00.311Z,102350
2024-01-26T12:54:00.306Z,102350
2024-01-26T12:55:00.263Z,102340
2024-01-26T12:56:00.293Z,102340
2024-01-26T12:57:00.297Z,102330
2024-01-26T12:58:00.282Z,102330
2024-01-26T12:59:00.186Z,102340
2024-01-26T13:00:00.459Z,102340
2024-01-26T13:01:00.593Z,102330
2024-01-26T13:02:00.303Z,102330
2024-01-26T13:03:00.511Z,102330
2024-01-26T13:04:00.360Z,102330
2024-01-26T13:05:00.397Z,102330
2024-01-26T13:06:00.433Z,102330
2024-01-26T13:07:00.401Z,102320
2024-01-26T13:08:00.349Z,102320
2024-01-26T13:09:00.561Z,102330
2024-01-26T13:10:00.297Z,102330
2024-01-26T13:11:00.257Z,102320
2024-01-26T13:12:01.840Z,102320
2024-01-26T13:13:00.267Z,102310